Aruja, Brazil
Current Conditions -  °F | °C
As of 10:00 PM on Monday 24 Nov 2014 (Local Time) from SBGR Reporting Station
Overcast Overcast  
Wind Chill: 70°   Ceiling: 1700
Heat Index: 70°   Visibility: 6mi
Dew Point: 66°   Wind: 5mph
Humidity: 88%   Direction: 150°SSE
Pressure: 30.03"   Gusts: NA
Location:  23.4°S, 46.34°W
Report Text: SBGR 250000Z 15004KT 9999 OVC017 21/19 Q1017
Loading
Personal Weather Stations






























Interactive Weather Map New forecast layout! Learn more

10-Day Weather Forecast

Advertisements
Track Severe Weather on mobile